Time;durP1;ratioP1;P1;durP2;ratioP2;P2;SDS_P1;SDS_P2;PMS_P1;PMS_P2;Temp;Humidity;BMP_temperature;BMP_pressure;BME280_temperature;BME280_humidity;BME280_pressure;Samples;Min_cycle;Max_cycle;Signal;HPM_P1;HPM_P2
2023/02/03 00:25:24;;;;;;;3.92;1.98;;;2.80;99.90;;;;;;5523509;23;20038;-79
2023/02/03 00:28:30;;;;;;;5.70;1.70;;;2.70;99.90;;;;;;5356158;23;20032;31
2023/02/03 00:31:45;;;;;;;4.63;1.10;;;2.80;99.90;;;;;;5664775;23;20811;31
2023/02/03 00:35:35;;;;;;;4.28;0.82;;;2.70;99.70;;;;;;5897149;23;20130;31
2023/02/03 00:39:40;;;;;;;3.22;0.85;;;2.70;99.50;;;;;;4829152;29;20038;-84
2023/02/03 01:05:13;;;;;;;3.88;1.00;;;2.60;95.90;;;;;;5598602;23;20138;-80
2023/02/03 01:13:45;;;;;;;3.83;1.45;;;2.60;94.60;;;;;;5459473;23;20152;31
2023/02/03 01:27:25;;;;;;;3.58;0.60;;;2.50;94.00;;;;;;4938088;23;20086;-78
2023/02/03 01:30:09;;;;;;;3.50;0.70;;;2.50;94.20;;;;;;5132339;23;20052;31
2023/02/03 01:32:39;;;;;;;2.35;0.80;;;2.50;94.00;;;;;;4875402;29;20049;-78
2023/02/03 01:35:07;;;;;;;3.20;0.70;;;2.50;94.00;;;;;;4843751;29;20046;-78
2023/02/03 01:37:50;;;;;;;;;;;2.40;93.90;;;;;;4908931;24;20072;-79
2023/02/03 01:40:34;;;;;;;28.58;8.80;;;3.20;94.10;;;;;;5366309;23;19945;-80
2023/02/03 01:46:47;;;;;;;2.45;0.90;;;2.30;93.80;;;;;;5725755;23;20035;31
2023/02/03 01:49:40;;;;;;;4.72;1.40;;;2.30;93.90;;;;;;4847635;29;20053;-78
2023/02/03 01:52:56;;;;;;;2.67;0.80;;;2.30;93.80;;;;;;5331242;23;20052;-80
2023/02/03 01:55:41;;;;;;;7.65;2.38;;;2.30;93.50;;;;;;4854792;29;20054;-80
2023/02/03 02:41:25;;;;;;;2.85;0.82;;;1.80;94.70;;;;;;5371823;23;21097;31
2023/02/03 02:47:37;;;;;;;3.75;1.05;;;1.80;94.70;;;;;;5563936;23;20085;31
2023/02/03 03:07:22;;;;;;;3.42;1.02;;;1.70;94.00;;;;;;5938165;23;20030;31
2023/02/03 03:10:04;;;;;;;2.78;0.70;;;1.70;94.00;;;;;;5601124;23;20028;-80
2023/02/03 03:12:53;;;;;;;3.60;0.70;;;1.70;93.90;;;;;;5644383;23;20043;31
2023/02/03 03:22:33;;;;;;;1.73;0.85;;;1.60;94.00;;;;;;5612958;24;20027;31
2023/02/03 03:25:38;;;;;;;3.58;1.00;;;1.60;94.00;;;;;;4873496;29;20073;-79
2023/02/03 03:28:32;;;;;;;7.05;1.50;;;1.70;93.80;;;;;;4951036;23;20023;-80
2023/02/03 03:31:12;;;;;;;8.85;2.72;;;1.60;93.60;;;;;;5089468;23;20053;-78
2023/02/03 03:34:12;;;;;;;4.90;1.85;;;1.60;93.60;;;;;;5130488;23;21319;-78
2023/02/03 03:37:34;;;;;;;3.28;1.27;;;1.50;93.50;;;;;;5216867;24;21162;31
2023/02/03 03:47:03;;;;;;;6.10;2.10;;;1.60;93.00;;;;;;5877300;23;20965;-80
2023/02/03 04:11:07;;;;;;;4.80;1.60;;;1.50;92.80;;;;;;6001514;23;20073;31
2023/02/03 04:31:00;;;;;;;3.90;2.33;;;1.20;93.20;;;;;;5554898;23;21033;-80
2023/02/03 04:33:27;;;;;;;10.30;4.00;;;1.20;93.30;;;;;;4877270;29;20100;-79
2023/02/03 04:35:59;;;;;;;4.28;1.58;;;1.10;93.00;;;;;;4995899;23;20069;-80
2023/02/03 05:02:51;;;;;;;3.90;1.10;;;1.30;92.90;;;;;;5999739;23;20054;31
2023/02/03 06:23:18;;;;;;;5.85;2.20;;;1.30;93.80;;;;;;5942913;23;20042;31
2023/02/03 07:06:19;;;;;;;6.32;2.78;;;1.40;93.50;;;;;;5583507;23;20076;-80
2023/02/03 07:08:46;;;;;;;5.18;2.03;;;1.40;93.40;;;;;;4881126;29;20094;-78
2023/02/03 07:11:14;;;;;;;7.07;2.85;;;1.40;93.20;;;;;;4866531;29;20049;-78
2023/02/03 07:13:41;;;;;;;9.30;3.78;;;1.40;93.20;;;;;;4860811;29;20647;-79
2023/02/03 07:16:08;;;;;;;8.93;3.38;;;1.40;93.10;;;;;;4859130;29;20140;-79
2023/02/03 07:18:35;;;;;;;12.77;4.10;;;1.10;93.50;;;;;;4871586;29;20084;-79
2023/02/03 07:21:15;;;;;;;10.77;4.38;;;1.50;94.00;;;;;;4854168;29;20064;-79
2023/02/03 07:23:42;;;;;;;8.32;3.25;;;1.50;94.20;;;;;;4835913;29;20041;-78
2023/02/03 07:26:10;;;;;;;5.10;2.13;;;1.50;94.00;;;;;;4867676;29;20398;-78
2023/02/03 07:28:37;;;;;;;5.47;1.65;;;1.50;94.20;;;;;;4865656;29;20040;-78
2023/02/03 07:31:04;;;;;;;4.18;1.90;;;1.50;94.40;;;;;;4839643;29;20045;-78
2023/02/03 07:33:31;;;;;;;3.88;1.30;;;1.50;94.60;;;;;;4864339;29;20517;-80
2023/02/03 07:35:59;;;;;;;9.95;1.83;;;1.60;95.00;;;;;;4868183;29;20040;-79
2023/02/03 07:38:27;;;;;;;10.50;2.95;;;1.60;95.10;;;;;;4847778;29;20501;-80
2023/02/03 07:40:54;;;;;;;5.03;2.20;;;1.60;95.10;;;;;;4875060;29;20049;-80
2023/02/03 07:43:23;;;;;;;10.68;6.20;;;1.60;95.40;;;;;;4877423;29;20047;-80
2023/02/03 07:52:31;;;;;;;13.68;6.00;;;1.70;95.50;;;;;;4887253;29;20233;-79
2023/02/03 08:15:23;;;;;;;7.00;1.88;;;1.70;95.70;;;;;;5939857;23;20030;31
2023/02/03 08:27:40;;;;;;;6.53;2.10;;;1.80;94.60;;;;;;4846921;29;20065;-79
2023/02/03 08:30:29;;;;;;;6.72;2.38;;;1.80;94.40;;;;;;5674983;23;20031;31
2023/02/03 08:33:26;;;;;;;10.45;3.50;;;1.80;94.50;;;;;;5250102;23;20053;31
2023/02/03 08:49:59;;;;;;;15.25;6.85;;;1.90;95.10;;;;;;5997362;23;21163;31
2023/02/03 09:03:27;;;;;;;9.60;4.00;;;1.90;95.40;;;;;;5865858;23;21187;31
2023/02/03 09:09:36;;;;;;;13.05;6.70;;;1.90;95.70;;;;;;5626431;24;20039;31
2023/02/03 09:12:12;;;;;;;13.15;5.80;;;2.00;97.00;;;;;;4865194;29;20048;-80
2023/02/03 09:21:05;;;;;;;14.43;6.55;;;1.80;99.90;;;;;;5958020;23;20104;31
2023/02/03 09:23:32;;;;;;;12.68;4.72;;;1.80;99.90;;;;;;4853006;29;20037;-79
2023/02/03 09:28:44;;;;;;;21.67;11.50;;;1.90;99.90;;;;;;4866347;29;20077;-79
2023/02/03 09:31:18;;;;;;;14.88;6.90;;;1.80;99.90;;;;;;4873564;29;20537;-79
2023/02/03 09:33:45;;;;;;;20.00;8.48;;;1.80;99.90;;;;;;4840034;29;20057;-79
2023/02/03 09:36:13;;;;;;;13.60;5.97;;;1.80;99.90;;;;;;4841139;29;20569;-80
2023/02/03 09:38:41;;;;;;;11.98;6.00;;;1.90;99.90;;;;;;4858816;29;20049;-80
2023/02/03 09:41:54;;;;;;;12.30;5.75;;;1.80;99.90;;;;;;4845876;29;20052;-80
2023/02/03 09:44:28;;;;;;;;;;;1.80;99.90;;;;;;4861090;29;20154;-79
2023/02/03 09:47:21;;;;;;;14.35;7.20;;;1.80;99.90;;;;;;4864266;29;20226;-79
2023/02/03 09:49:59;;;;;;;;;;;1.80;99.90;;;;;;4851374;29;20113;-79
2023/02/03 09:52:43;;;;;;;12.45;6.13;;;1.90;99.90;;;;;;4845402;29;19928;-79
2023/02/03 09:55:38;;;;;;;12.20;6.00;;;1.90;99.90;;;;;;4851279;29;20153;-79
2023/02/03 09:58:17;;;;;;;12.45;5.32;;;1.90;99.90;;;;;;4855014;29;20103;-79
2023/02/03 10:00:57;;;;;;;10.35;4.93;;;1.90;99.90;;;;;;4850764;29;20391;-79
2023/02/03 10:03:36;;;;;;;25.02;8.48;;;1.90;99.90;;;;;;4866573;29;20091;-79
2023/02/03 10:06:12;;;;;;;38.53;15.30;;;1.90;99.90;;;;;;4863988;29;20590;-79
2023/02/03 10:08:45;;;;;;;21.02;9.15;;;2.00;99.90;;;;;;4852764;29;20049;-79
2023/02/03 10:11:25;;;;;;;27.92;15.43;;;2.00;99.90;;;;;;4848657;29;20440;-79
2023/02/03 10:14:41;;;;;;;27.30;11.98;;;2.00;99.90;;;;;;4873237;29;20058;-79
2023/02/03 10:17:32;;;;;;;14.10;6.90;;;2.00;99.90;;;;;;4778676;29;20069;-79
2023/02/03 10:20:08;;;;;;;11.05;4.50;;;2.00;99.90;;;;;;4781075;29;20042;-79
2023/02/03 10:23:00;;;;;;;14.63;6.05;;;1.90;99.90;;;;;;4840959;29;20053;-79
2023/02/03 10:25:33;;;;;;;12.10;5.20;;;2.00;99.90;;;;;;4866426;29;20040;-79
2023/02/03 10:28:03;;;;;;;;;;;2.00;99.90;;;;;;4858602;29;20049;-79
2023/02/03 10:30:44;;;;;;;8.40;3.25;;;1.90;99.90;;;;;;4870813;29;19942;-79
2023/02/03 10:33:16;;;;;;;10.98;5.05;;;1.90;99.90;;;;;;4856948;29;20052;-79
2023/02/03 10:35:46;;;;;;;11.13;5.10;;;1.90;99.90;;;;;;4879283;29;20049;-79
2023/02/03 10:38:35;;;;;;;18.25;9.63;;;1.90;99.90;;;;;;4872730;29;20124;-79
2023/02/03 10:41:03;;;;;;;15.05;6.55;;;1.90;99.90;;;;;;4870277;29;20041;-79
2023/02/03 10:43:46;;;;;;;13.00;6.28;;;1.90;99.90;;;;;;4873618;29;20064;-79
2023/02/03 10:46:34;;;;;;;19.73;9.10;;;1.80;99.90;;;;;;4876617;29;20047;-79
2023/02/03 10:49:02;;;;;;;25.25;10.18;;;1.90;99.90;;;;;;4893874;29;20049;-79
2023/02/03 10:51:36;;;;;;;19.33;8.23;;;2.00;99.90;;;;;;4886674;29;20033;-79
2023/02/03 10:54:03;;;;;;;16.67;6.88;;;1.90;99.90;;;;;;4881124;29;20040;-79
2023/02/03 10:56:38;;;;;;;15.25;5.32;;;2.00;99.90;;;;;;4891626;29;20044;-79
2023/02/03 10:59:14;;;;;;;17.05;7.35;;;1.50;99.90;;;;;;4971450;23;20095;31
2023/02/03 11:18:38;;;;;;;29.10;10.75;;;1.80;99.90;;;;;;5959695;23;20083;31
2023/02/03 12:07:21;;;;;;;14.70;7.70;;;1.60;99.90;;;;;;5941549;23;20064;31
2023/02/03 12:26:55;;;;;;;11.60;4.97;;;1.70;99.90;;;;;;5655541;23;20061;-79
2023/02/03 12:29:35;;;;;;;15.32;7.25;;;1.60;99.90;;;;;;4877938;29;20063;-78
2023/02/03 12:32:33;;;;;;;16.88;9.65;;;1.80;99.90;;;;;;4844568;29;20089;-78
2023/02/03 12:39:01;;;;;;;9.13;4.05;;;1.90;99.90;;;;;;5403441;23;20783;-78
2023/02/03 12:41:39;;;;;;;7.72;2.95;;;2.20;99.90;;;;;;4852393;29;20475;-78
2023/02/03 12:44:27;;;;;;;9.45;4.75;;;1.80;99.90;;;;;;4837056;29;20050;-78
2023/02/03 12:47:15;;;;;;;8.95;3.80;;;1.70;99.90;;;;;;4847854;29;20536;-77
2023/02/03 12:49:51;;;;;;;15.65;6.93;;;1.60;99.90;;;;;;4834935;29;20061;-77
2023/02/03 12:52:39;;;;;;;7.18;2.85;;;1.90;99.90;;;;;;4837593;29;20054;-79
2023/02/03 12:55:36;;;;;;;8.35;3.80;;;1.70;99.90;;;;;;4850810;29;20049;-79
2023/02/03 12:58:27;;;;;;;10.65;4.50;;;1.80;99.90;;;;;;4818567;29;20061;-79
2023/02/03 13:01:09;;;;;;;8.98;4.38;;;2.10;99.90;;;;;;4833155;29;20125;-79
2023/02/03 13:04:04;;;;;;;13.32;5.88;;;1.80;99.90;;;;;;4850721;29;20078;-79
2023/02/03 13:06:47;;;;;;;47.83;24.40;;;1.70;99.90;;;;;;4843792;29;20719;-79
2023/02/03 13:09:48;;;;;;;27.33;12.93;;;1.70;99.90;;;;;;4825224;29;20406;-79
2023/02/03 13:12:49;;;;;;;35.30;16.77;;;1.70;99.90;;;;;;4863012;29;20057;-78
2023/02/03 13:15:22;;;;;;;18.55;7.07;;;1.70;99.90;;;;;;4836521;29;20061;-78
2023/02/03 13:18:14;;;;;;;14.50;6.80;;;0.90;99.90;;;;;;4822290;29;20178;-79
2023/02/03 13:20:41;;;;;;;14.25;4.88;;;1.50;99.90;;;;;;4835835;29;20061;-78
2023/02/03 13:23:14;;;;;;;10.18;4.35;;;1.60;99.90;;;;;;4840315;29;20077;-78
2023/02/03 13:26:20;;;;;;;18.05;9.25;;;1.60;99.90;;;;;;4836736;29;20131;-78
2023/02/03 13:32:28;;;;;;;11.82;6.30;;;1.60;99.90;;;;;;5217209;23;20040;31
2023/02/03 13:35:14;;;;;;;12.07;6.40;;;1.50;99.90;;;;;;4882729;29;20053;-79
2023/02/03 13:38:29;;;;;;;17.15;7.03;;;1.60;99.90;;;;;;4906315;29;20073;-79
2023/02/03 13:41:14;;;;;;;22.73;11.30;;;1.60;99.90;;;;;;4880108;29;20039;-79
2023/02/03 13:44:02;;;;;;;30.35;14.90;;;1.90;99.90;;;;;;4882299;29;20044;-78
2023/02/03 13:46:33;;;;;;;22.65;9.90;;;1.60;99.90;;;;;;4837377;29;20045;-78
2023/02/03 13:49:03;;;;;;;20.42;8.73;;;1.60;99.90;;;;;;4840362;29;20057;-78
2023/02/03 13:51:34;;;;;;;23.48;10.30;;;1.60;99.90;;;;;;4842835;29;20094;-79
2023/02/03 13:57:23;;;;;;;22.05;9.88;;;1.60;99.90;;;;;;4819981;29;20431;-78
2023/02/03 13:59:50;;;;;;;16.33;7.50;;;1.60;99.90;;;;;;4805902;29;20599;-78
2023/02/03 14:02:18;;;;;;;17.17;7.10;;;1.60;99.90;;;;;;4823786;29;20051;-78
2023/02/03 14:04:45;;;;;;;18.60;6.95;;;1.60;99.90;;;;;;4800183;29;20057;-78
2023/02/03 14:07:38;;;;;;;13.00;5.85;;;1.60;99.90;;;;;;4811126;29;20034;-79
2023/02/03 14:13:27;;;;;;;18.80;8.10;;;1.60;99.90;;;;;;5190911;23;20030;31
2023/02/03 14:19:35;;;;;;;19.20;7.70;;;1.60;99.90;;;;;;5865607;23;20092;31
2023/02/03 14:22:16;;;;;;;15.60;6.30;;;1.70;99.90;;;;;;5843415;23;20020;31
2023/02/03 14:27:40;;;;;;;17.67;6.95;;;0.70;99.90;;;;;;4877819;29;20050;-79
2023/02/03 14:30:07;;;;;;;14.77;6.05;;;1.70;99.90;;;;;;4844333;29;20060;-79
2023/02/03 14:32:56;;;;;;;16.58;6.07;;;1.70;99.90;;;;;;4861351;29;20045;-79
2023/02/03 14:35:39;;;;;;;18.65;7.00;;;1.70;99.90;;;;;;4876868;29;20053;-79
2023/02/03 14:41:03;;;;;;;14.38;6.85;;;1.80;99.90;;;;;;4882043;29;20056;-79
2023/02/03 14:43:53;;;;;;;12.15;5.60;;;1.80;99.90;;;;;;4874060;29;20063;-79
2023/02/03 14:46:32;;;;;;;14.82;6.40;;;1.80;99.90;;;;;;4880290;29;20389;-79
2023/02/03 14:49:21;;;;;;;17.23;7.47;;;1.80;99.90;;;;;;4858688;29;20646;-79
2023/02/03 14:52:09;;;;;;;19.00;9.07;;;1.80;99.90;;;;;;4879208;29;20528;-79
2023/02/03 14:54:57;;;;;;;24.60;12.75;;;1.80;99.90;;;;;;4884631;29;20049;-80
2023/02/03 14:57:48;;;;;;;23.45;12.10;;;1.80;99.90;;;;;;4879451;29;20682;-79
2023/02/03 15:00:19;;;;;;;26.38;11.52;;;1.80;99.90;;;;;;4883018;29;20049;-79
2023/02/03 15:03:12;;;;;;;22.10;9.73;;;1.80;99.90;;;;;;4865615;29;20055;-79
2023/02/03 15:06:02;;;;;;;23.90;10.48;;;1.90;99.90;;;;;;4881556;29;20089;-78
2023/02/03 15:08:40;;;;;;;18.65;8.07;;;1.80;99.90;;;;;;4867078;29;20053;-78
2023/02/03 15:11:28;;;;;;;15.75;6.78;;;1.90;99.90;;;;;;4885423;29;20052;-78
2023/02/03 15:14:14;;;;;;;16.00;6.68;;;1.90;99.90;;;;;;4883035;29;20053;-79
2023/02/03 15:16:46;;;;;;;14.73;6.75;;;1.90;99.90;;;;;;4866273;29;20561;-79
2023/02/03 15:19:21;;;;;;;36.78;13.98;;;1.90;99.90;;;;;;4871452;29;20383;-78
2023/02/03 15:21:48;;;;;;;48.38;17.08;;;1.90;99.90;;;;;;4883440;29;20089;-78
2023/02/03 15:24:20;;;;;;;128.23;40.90;;;2.00;99.90;;;;;;4863212;29;20041;-79
2023/02/03 15:26:55;;;;;;;173.70;53.38;;;2.00;99.90;;;;;;4855741;29;20067;-79
2023/02/03 15:29:27;;;;;;;129.60;44.15;;;2.20;99.90;;;;;;4887778;29;20136;-79
2023/02/03 15:32:20;;;;;;;111.53;43.38;;;2.20;99.90;;;;;;4894015;29;20052;-79
2023/02/03 15:34:49;;;;;;;101.32;48.17;;;2.30;99.90;;;;;;4885360;29;20133;-79
2023/02/03 15:37:26;;;;;;;44.30;22.77;;;2.20;99.90;;;;;;4874583;29;20037;-78
2023/02/03 15:39:59;;;;;;;27.75;15.27;;;2.40;99.90;;;;;;4857620;29;20057;-78
2023/02/03 15:42:31;;;;;;;20.60;11.80;;;2.40;99.90;;;;;;4840182;29;20152;-79
2023/02/03 15:45:21;;;;;;;33.03;10.70;;;2.30;99.90;;;;;;4825334;29;20410;-79
2023/02/03 15:47:56;;;;;;;13.93;8.10;;;2.40;99.90;;;;;;4811768;29;20148;-78
2023/02/03 15:50:50;;;;;;;18.67;10.15;;;2.50;99.90;;;;;;4864349;29;20405;-78
2023/02/03 15:53:28;;;;;;;14.13;6.80;;;2.50;99.90;;;;;;4834295;29;20403;-78
2023/02/03 15:56:36;;;;;;;13.88;7.05;;;2.60;99.90;;;;;;4846549;29;20041;-80
2023/02/03 15:59:05;;;;;;;14.57;6.60;;;2.60;99.90;;;;;;4853965;29;20052;-79
2023/02/03 16:01:32;;;;;;;17.10;6.63;;;2.70;99.90;;;;;;4848593;29;20049;-79
2023/02/03 16:03:59;;;;;;;14.20;6.82;;;2.70;99.90;;;;;;4857316;29;20434;-79
2023/02/03 16:06:29;;;;;;;13.23;5.85;;;2.70;99.90;;;;;;4852699;29;20060;-79
2023/02/03 16:08:58;;;;;;;13.43;6.22;;;2.60;99.90;;;;;;4881854;29;20109;-79
2023/02/03 19:59:44;;;;;;;5.13;2.95;;;3.80;99.90;;;;;;5432485;22;20024;-79
2023/02/03 20:02:47;;;;;;;3.88;1.58;;;3.80;99.90;;;;;;5254079;22;20023;-78
2023/02/03 20:05:46;;;;;;;4.45;1.80;;;4.00;99.90;;;;;;5000780;28;20061;-78
2023/02/03 20:09:11;;;;;;;3.20;1.38;;;4.00;99.90;;;;;;4977214;28;20071;-79
2023/02/03 20:12:38;;;;;;;2.65;0.70;;;3.10;99.90;;;;;;4902953;29;20056;-78
2023/02/03 20:15:33;;;;;;;2.55;0.70;;;3.30;99.90;;;;;;4824601;29;20184;-78
2023/02/03 20:18:26;;;;;;;1.95;0.80;;;4.00;99.90;;;;;;4791741;29;20065;-78
2023/02/03 20:21:24;;;;;;;2.30;0.60;;;4.10;99.90;;;;;;4978447;28;20054;-77
2023/02/03 20:24:01;;;;;;;1.23;0.40;;;4.00;99.90;;;;;;4912066;29;20040;-77
2023/02/03 20:26:38;;;;;;;2.10;0.47;;;4.10;99.90;;;;;;4917866;29;20048;-77
2023/02/03 20:29:14;;;;;;;4.00;0.85;;;4.00;99.90;;;;;;4904418;29;20052;-77
2023/02/03 20:31:47;;;;;;;2.85;1.25;;;4.10;99.90;;;;;;4909162;29;20076;-78
2023/02/03 20:34:33;;;;;;;1.52;0.55;;;4.10;99.90;;;;;;4911401;29;20064;-77
2023/02/03 20:37:05;;;;;;;5.80;1.88;;;4.00;99.90;;;;;;4904779;29;20044;-78
2023/02/03 20:39:38;;;;;;;4.00;1.23;;;4.10;99.90;;;;;;4881516;29;20054;-77
2023/02/03 20:42:25;;;;;;;1.85;0.40;;;4.10;99.90;;;;;;4864846;29;20041;-77
2023/02/03 20:45:18;;;;;;;6.22;0.98;;;5.10;99.90;;;;;;5012963;28;20062;-78
2023/02/03 20:47:50;;;;;;;1.80;0.90;;;4.00;99.90;;;;;;4999525;28;20063;-78
2023/02/03 20:50:23;;;;;;;3.97;1.63;;;4.10;99.90;;;;;;4981480;28;20099;-78
2023/02/03 20:53:41;;;;;;;3.83;1.20;;;4.10;99.90;;;;;;5002054;28;20490;-78
2023/02/03 20:56:21;;;;;;;2.70;0.82;;;3.90;99.90;;;;;;4975010;28;20570;-78
2023/02/03 20:58:52;;;;;;;3.97;1.27;;;4.00;99.90;;;;;;4970482;28;20064;-78
2023/02/03 21:02:09;;;;;;;5.03;2.22;;;4.10;99.90;;;;;;4944860;28;20531;-78
2023/02/03 21:05:11;;;;;;;5.65;2.17;;;4.10;99.90;;;;;;4975130;28;20060;-78
2023/02/03 21:08:02;;;;;;;4.43;1.60;;;4.10;99.90;;;;;;4900221;29;20052;-78
2023/02/03 21:10:55;;;;;;;2.70;1.50;;;4.10;99.90;;;;;;4941215;29;20111;-78
2023/02/03 21:13:37;;;;;;;5.43;2.05;;;4.10;99.90;;;;;;4945873;29;20104;-78
2023/02/03 21:16:48;;;;;;;5.65;1.02;;;4.00;99.90;;;;;;4941907;29;20507;-78
2023/02/03 21:19:57;;;;;;;4.65;1.83;;;4.10;99.90;;;;;;4896064;29;20033;-78
2023/02/03 21:23:19;;;;;;;4.38;1.08;;;4.20;99.90;;;;;;4874697;29;20139;-79
2023/02/03 21:25:51;;;;;;;4.40;1.27;;;4.10;99.90;;;;;;4873439;29;20083;-78
2023/02/03 21:28:59;;;;;;;3.85;1.40;;;4.20;99.90;;;;;;4857931;29;20030;-79
2023/02/03 21:31:36;;;;;;;2.95;0.82;;;4.20;99.90;;;;;;4836271;29;20077;-78
2023/02/03 21:38:31;;;;;;;6.60;1.08;;;4.10;99.90;;;;;;4990125;28;20081;-78
2023/02/03 21:41:32;;;;;;;4.53;0.60;;;4.20;99.90;;;;;;4934401;29;20044;-79
2023/02/03 21:45:21;;;;;;;3.45;0.40;;;4.60;99.90;;;;;;4868114;29;20049;-78
2023/02/03 21:48:25;;;;;;;4.47;0.95;;;4.20;99.90;;;;;;5219149;23;20022;-78
2023/02/03 21:51:28;;;;;;;3.70;0.65;;;4.20;99.90;;;;;;5429988;23;20085;-78
2023/02/03 21:54:43;;;;;;;6.20;0.70;;;4.20;99.90;;;;;;5232815;23;20059;-78
2023/02/03 21:57:27;;;;;;;5.47;0.70;;;4.20;99.90;;;;;;5840343;23;21028;-80
2023/02/03 22:00:57;;;;;;;2.50;0.50;;;4.10;99.90;;;;;;5842713;23;20051;31
2023/02/03 22:03:50;;;;;;;6.40;0.57;;;5.10;99.90;;;;;;4969884;23;20067;-79
2023/02/03 22:06:55;;;;;;;8.82;0.82;;;4.00;99.90;;;;;;5217798;23;20044;31
2023/02/03 22:12:41;;;;;;;9.15;3.15;;;3.90;99.90;;;;;;5376343;24;19995;-79
2023/02/03 22:15:24;;;;;;;7.32;2.75;;;3.80;99.90;;;;;;4909832;29;20064;-78
2023/02/03 22:18:26;;;;;;;7.60;2.35;;;4.20;99.90;;;;;;5072927;23;20037;-78
2023/02/03 22:21:25;;;;;;;7.00;1.55;;;3.40;99.90;;;;;;4884425;29;20041;-77
2023/02/03 22:24:30;;;;;;;4.53;1.85;;;3.90;99.90;;;;;;4826230;29;20051;-78
2023/02/03 22:27:00;;;;;;;9.43;3.72;;;4.20;99.90;;;;;;4785763;29;20043;-77
2023/02/03 22:29:32;;;;;;;8.00;1.23;;;4.10;99.90;;;;;;5479677;23;20028;31
2023/02/03 22:32:21;;;;;;;9.55;1.60;;;4.10;99.90;;;;;;5109726;24;20042;-78
2023/02/03 22:35:25;;;;;;;6.90;1.20;;;4.10;99.90;;;;;;4887769;24;20043;-79
2023/02/03 22:38:02;;;;;;;9.15;1.15;;;4.30;99.90;;;;;;5297553;24;20035;-79
2023/02/03 22:40:54;;;;;;;6.03;1.10;;;4.40;99.90;;;;;;4850129;29;20105;-78
2023/02/03 22:43:45;;;;;;;8.40;1.42;;;4.30;99.90;;;;;;4861221;29;20033;-78
2023/02/03 22:46:22;;;;;;;6.85;0.90;;;4.40;99.90;;;;;;4864868;29;20049;-78
2023/02/03 22:48:51;;;;;;;8.15;1.85;;;4.20;99.90;;;;;;4873958;29;20050;-78
2023/02/03 22:51:44;;;;;;;5.88;1.10;;;4.30;99.90;;;;;;4838895;29;20117;-78
2023/02/03 23:08:19;;;;;;;7.28;1.55;;;4.40;99.90;;;;;;4912348;24;20037;-78
2023/02/03 23:11:21;;;;;;;10.33;1.00;;;4.30;99.90;;;;;;5106152;23;20049;31
2023/02/03 23:27:02;;;;;;;9.53;1.77;;;4.30;99.90;;;;;;5912022;23;20991;31
2023/02/03 23:40:15;;;;;;;5.28;0.73;;;4.20;99.90;;;;;;5580681;23;20088;-78
2023/02/03 23:42:52;;;;;;;7.78;0.80;;;4.30;99.90;;;;;;4826666;29;20046;-78
2023/02/03 23:45:30;;;;;;;4.70;0.93;;;4.30;99.90;;;;;;5258923;24;20054;31
2023/02/03 23:48:16;;;;;;;8.25;1.27;;;4.40;99.90;;;;;;4853831;29;20038;-78
2023/02/03 23:58:22;;;;;;;7.82;1.52;;;4.30;99.90;;;;;;5751384;23;20048;-78
